Time;durP1;ratioP1;P1;durP2;ratioP2;P2;SDS_P1;SDS_P2;PMS_P1;PMS_P2;Temp;Humidity;BMP_temperature;BMP_pressure;BME280_temperature;BME280_humidity;BME280_pressure;Samples;Min_cycle;Max_cycle;Signal;HPM_P1;HPM_P2
2021/09/06 00:02:01;;;;;;;7.82;6.95;;;23.00;64.70;;;;;;5094934;28;20051;-66
2021/09/06 00:04:28;;;;;;;8.45;7.18;;;23.00;64.80;;;;;;5093954;28;20491;-65
2021/09/06 00:06:55;;;;;;;10.00;6.38;;;23.00;64.90;;;;;;5094380;28;20044;-66
2021/09/06 00:09:21;;;;;;;8.93;6.30;;;22.90;65.00;;;;;;5094084;28;20040;-66
2021/09/06 00:11:48;;;;;;;9.00;7.05;;;22.90;64.90;;;;;;5075605;28;20772;-66
2021/09/06 00:14:14;;;;;;;7.80;6.93;;;22.90;65.00;;;;;;5093854;28;20515;-65
2021/09/06 00:16:41;;;;;;;8.73;6.47;;;22.90;65.00;;;;;;5094406;28;20040;-66
2021/09/06 00:19:07;;;;;;;9.50;7.15;;;22.90;65.00;;;;;;5093245;28;20055;-66
2021/09/06 00:21:34;;;;;;;9.93;6.75;;;22.90;65.00;;;;;;5076562;28;20488;-65
2021/09/06 00:24:01;;;;;;;7.53;6.72;;;22.90;65.10;;;;;;5094602;28;20069;-65
2021/09/06 00:26:28;;;;;;;8.32;6.82;;;22.90;65.00;;;;;;5093371;28;20044;-66
2021/09/06 00:28:55;;;;;;;8.15;6.63;;;22.90;65.10;;;;;;5076195;28;20043;-65
2021/09/06 00:31:23;;;;;;;7.47;6.00;;;22.90;65.20;;;;;;5093188;28;20507;-66
2021/09/06 00:33:49;;;;;;;10.25;7.78;;;22.90;65.40;;;;;;5093844;28;20036;-65
2021/09/06 00:36:16;;;;;;;10.57;7.82;;;22.90;65.40;;;;;;5092955;28;20040;-66
2021/09/06 00:38:42;;;;;;;8.40;7.10;;;22.90;65.50;;;;;;5093091;28;20047;-65
2021/09/06 00:41:09;;;;;;;9.88;7.05;;;22.90;65.50;;;;;;5075452;28;20042;-65
2021/09/06 00:43:36;;;;;;;11.27;7.55;;;22.90;65.40;;;;;;5093795;28;20040;-65
2021/09/06 00:46:03;;;;;;;12.45;7.05;;;22.90;65.40;;;;;;5093066;28;20051;-65
2021/09/06 00:48:30;;;;;;;7.43;6.63;;;22.90;65.50;;;;;;5093221;28;20472;-65
2021/09/06 00:50:57;;;;;;;8.68;6.53;;;22.90;65.40;;;;;;5092701;28;20040;-65
2021/09/06 00:53:24;;;;;;;12.95;7.90;;;22.80;65.50;;;;;;5092788;28;20048;-65
2021/09/06 00:55:51;;;;;;;9.13;7.30;;;22.80;65.50;;;;;;5076339;28;20044;-65
2021/09/06 00:58:18;;;;;;;7.45;6.28;;;22.80;65.40;;;;;;5093714;28;20036;-65
2021/09/06 01:00:45;;;;;;;10.02;7.05;;;22.80;65.40;;;;;;5094055;28;20052;-65
2021/09/06 01:03:13;;;;;;;8.00;7.20;;;22.80;65.60;;;;;;5093798;28;20040;-65
2021/09/06 01:05:43;;;;;;;8.07;6.95;;;22.80;65.60;;;;;;5075307;28;20134;-65
2021/09/06 01:08:21;;;;;;;10.27;8.27;;;22.80;65.60;;;;;;5094208;28;20047;-67
2021/09/06 01:11:09;;;;;;;9.52;7.20;;;22.80;66.10;;;;;;5071477;28;20043;-66
2021/09/06 01:13:51;;;;;;;8.57;7.13;;;22.80;65.50;;;;;;5075051;28;20043;-66
2021/09/06 01:16:22;;;;;;;11.05;7.32;;;22.90;65.40;;;;;;5093008;28;20473;-65
2021/09/06 01:18:49;;;;;;;9.35;8.05;;;22.80;65.30;;;;;;5074407;28;20051;-66
2021/09/06 01:21:15;;;;;;;8.68;6.88;;;22.80;65.30;;;;;;5074432;28;20526;-67
2021/09/06 01:24:01;;;;;;;8.55;6.45;;;22.80;65.50;;;;;;5093662;28;20044;-65
2021/09/06 01:26:31;;;;;;;9.77;6.82;;;22.80;65.40;;;;;;5075173;28;20047;-66
2021/09/06 01:28:57;;;;;;;8.82;7.32;;;22.80;65.40;;;;;;5075039;28;20051;-65
2021/09/06 01:31:29;;;;;;;9.02;7.43;;;22.80;65.50;;;;;;5074754;28;20056;-66
2021/09/06 01:33:57;;;;;;;8.25;7.22;;;22.80;65.60;;;;;;5075601;28;20043;-67
2021/09/06 01:36:24;;;;;;;10.50;6.63;;;22.80;65.60;;;;;;5075170;28;20036;-66
2021/09/06 01:38:55;;;;;;;8.50;6.80;;;22.70;65.40;;;;;;5075348;28;20052;-65
2021/09/06 01:41:22;;;;;;;9.30;7.47;;;22.80;65.70;;;;;;5074603;28;20034;-65
2021/09/06 01:43:49;;;;;;;9.18;7.25;;;22.70;65.60;;;;;;5075275;28;20469;-65
2021/09/06 01:46:16;;;;;;;7.45;6.65;;;22.70;65.80;;;;;;5092368;28;20036;-66
2021/09/06 01:48:42;;;;;;;7.78;6.93;;;22.70;65.90;;;;;;5056957;28;20391;-67
2021/09/06 01:51:09;;;;;;;8.98;6.80;;;22.70;65.90;;;;;;5074140;28;20043;-65
2021/09/06 01:53:35;;;;;;;8.18;6.85;;;22.70;65.90;;;;;;5092776;28;20056;-66
2021/09/06 01:56:03;;;;;;;9.60;7.68;;;22.70;65.80;;;;;;5092620;28;20036;-65
2021/09/06 01:58:30;;;;;;;8.48;6.95;;;22.70;65.50;;;;;;5073281;28;20472;-65
2021/09/06 02:00:57;;;;;;;9.05;6.70;;;22.70;65.60;;;;;;5075179;28;20040;-66
2021/09/06 02:03:32;;;;;;;7.65;6.40;;;22.70;65.60;;;;;;5074684;28;20049;-67
2021/09/06 02:05:59;;;;;;;8.05;6.97;;;22.70;65.60;;;;;;5074158;28;20047;-64
2021/09/06 02:08:41;;;;;;;8.20;7.10;;;22.70;65.60;;;;;;5074216;28;20059;-66
2021/09/06 02:11:09;;;;;;;9.35;7.15;;;22.70;65.50;;;;;;5074771;28;20040;-65
2021/09/06 02:13:35;;;;;;;8.52;7.15;;;22.70;65.60;;;;;;5074542;28;20404;-66
2021/09/06 02:16:03;;;;;;;6.95;6.22;;;22.70;65.60;;;;;;5074559;28;20468;-65
2021/09/06 02:18:32;;;;;;;8.50;7.13;;;22.70;65.50;;;;;;5074095;28;20052;-65
2021/09/06 02:20:58;;;;;;;7.40;6.70;;;22.70;65.60;;;;;;5091856;28;20044;-65
2021/09/06 02:23:25;;;;;;;8.80;6.97;;;22.60;65.60;;;;;;5074785;28;20048;-66
2021/09/06 02:25:55;;;;;;;8.57;7.40;;;22.70;65.70;;;;;;5074554;28;20048;-66
2021/09/06 02:28:22;;;;;;;9.70;7.30;;;22.70;65.80;;;;;;5073195;28;20499;-66
2021/09/06 02:30:50;;;;;;;9.40;7.28;;;22.70;65.80;;;;;;5074078;28;20473;-66
2021/09/06 02:33:24;;;;;;;9.07;7.45;;;22.70;65.90;;;;;;5074369;28;20048;-65
2021/09/06 02:36:12;;;;;;;9.07;6.53;;;22.70;65.80;;;;;;5074445;28;20048;-65
2021/09/06 02:38:39;;;;;;;9.85;7.38;;;22.70;65.80;;;;;;5073809;28;20111;-65
2021/09/06 02:41:13;;;;;;;9.80;6.90;;;22.70;65.90;;;;;;5074299;28;20036;-65
2021/09/06 02:43:40;;;;;;;10.73;7.82;;;22.70;65.80;;;;;;5073630;28;20040;-65
2021/09/06 02:46:07;;;;;;;9.00;8.07;;;22.60;65.90;;;;;;5091876;28;20043;-65
2021/09/06 02:48:34;;;;;;;9.75;7.50;;;22.60;65.90;;;;;;5073878;28;20032;-65
2021/09/06 02:51:00;;;;;;;9.35;6.80;;;22.60;66.00;;;;;;5092174;28;20396;-66
2021/09/06 02:53:27;;;;;;;9.90;6.70;;;22.60;66.00;;;;;;5057951;28;20040;-66
2021/09/06 02:55:54;;;;;;;10.48;7.32;;;22.60;66.00;;;;;;5073975;28;20048;-65
2021/09/06 02:58:21;;;;;;;12.55;7.10;;;22.60;66.00;;;;;;5074128;28;20483;-65
2021/09/06 03:00:51;;;;;;;10.25;7.32;;;22.60;66.00;;;;;;5074441;28;20071;-66
2021/09/06 03:03:18;;;;;;;8.40;6.88;;;22.60;66.10;;;;;;5090839;28;20048;-65
2021/09/06 03:05:46;;;;;;;7.53;6.80;;;22.60;66.10;;;;;;5074421;28;20048;-65
2021/09/06 03:08:14;;;;;;;9.48;7.57;;;22.60;66.20;;;;;;5090936;28;20384;-66
2021/09/06 03:10:41;;;;;;;10.75;7.70;;;22.60;66.30;;;;;;5077600;28;20503;-65
2021/09/06 03:13:08;;;;;;;10.07;7.18;;;22.60;66.40;;;;;;5077402;28;20468;-65
2021/09/06 03:15:34;;;;;;;8.35;6.95;;;22.60;66.60;;;;;;5077304;28;20048;-64
2021/09/06 03:18:01;;;;;;;9.27;7.30;;;22.60;66.40;;;;;;5076908;28;20047;-63
2021/09/06 03:20:51;;;;;;;10.53;8.27;;;22.60;66.40;;;;;;5066280;28;20036;-65
2021/09/06 03:23:17;;;;;;;12.05;8.02;;;22.60;66.50;;;;;;5077518;28;20052;-65
2021/09/06 03:25:45;;;;;;;8.80;7.72;;;22.50;66.70;;;;;;5077531;28;20052;-66
2021/09/06 03:28:13;;;;;;;9.90;8.18;;;22.50;67.10;;;;;;5060463;28;20036;-65
2021/09/06 03:30:42;;;;;;;9.23;7.93;;;22.50;67.80;;;;;;5076572;28;20063;-65
2021/09/06 03:33:13;;;;;;;9.25;7.72;;;22.50;68.80;;;;;;5076511;28;20282;-65
2021/09/06 03:35:43;;;;;;;13.48;8.00;;;22.40;68.90;;;;;;5095703;28;20476;-65
2021/09/06 03:38:11;;;;;;;10.32;8.60;;;22.40;69.00;;;;;;5060008;28;20484;-65
2021/09/06 03:40:39;;;;;;;9.60;8.60;;;22.40;69.10;;;;;;5077674;28;20047;-65
2021/09/06 03:43:06;;;;;;;10.48;8.43;;;22.30;69.30;;;;;;5076875;28;20047;-65
2021/09/06 03:45:35;;;;;;;11.98;8.90;;;22.30;69.50;;;;;;5076475;28;20044;-67
2021/09/06 03:48:02;;;;;;;10.45;8.32;;;22.30;69.80;;;;;;5077116;28;20044;-66
2021/09/06 03:50:29;;;;;;;10.80;8.95;;;22.30;69.90;;;;;;5076932;28;20047;-66
2021/09/06 03:52:59;;;;;;;11.32;8.93;;;22.30;70.10;;;;;;5076963;28;20051;-67
2021/09/06 03:55:25;;;;;;;11.80;9.13;;;22.40;70.20;;;;;;5095184;28;20036;-66
2021/09/06 03:57:52;;;;;;;12.52;9.52;;;22.40;70.30;;;;;;5076127;28;20055;-66
2021/09/06 04:00:20;;;;;;;12.25;9.88;;;22.30;70.40;;;;;;5076981;28;20036;-66
2021/09/06 04:02:48;;;;;;;13.82;10.75;;;22.20;70.40;;;;;;5076951;28;20048;-66
2021/09/06 04:05:21;;;;;;;12.48;10.73;;;22.10;70.20;;;;;;5076698;28;20036;-66
2021/09/06 04:07:48;;;;;;;11.60;10.40;;;22.00;70.80;;;;;;5077065;28;20048;-66
2021/09/06 04:10:15;;;;;;;14.98;13.45;;;22.00;71.20;;;;;;5076522;28;20039;-66
2021/09/06 04:12:42;;;;;;;12.10;10.82;;;22.00;71.80;;;;;;5076882;28;20052;-66
2021/09/06 04:15:10;;;;;;;14.45;12.00;;;21.90;71.70;;;;;;5059932;28;20032;-66
2021/09/06 04:17:37;;;;;;;14.40;10.43;;;21.90;70.50;;;;;;5075888;28;20048;-65
2021/09/06 04:20:05;;;;;;;11.02;9.25;;;22.00;70.00;;;;;;5076299;28;20468;-66
2021/09/06 04:22:33;;;;;;;12.50;10.00;;;21.90;70.10;;;;;;5060372;28;20047;-65
2021/09/06 04:25:02;;;;;;;14.82;10.80;;;22.00;70.70;;;;;;5076629;28;20040;-65
2021/09/06 04:27:28;;;;;;;13.55;10.07;;;22.00;71.20;;;;;;5075330;28;20055;-66
2021/09/06 04:29:55;;;;;;;13.23;10.20;;;22.00;71.40;;;;;;5076424;28;20314;-66
2021/09/06 04:32:22;;;;;;;12.48;10.30;;;22.00;71.40;;;;;;5076154;28;20052;-66
2021/09/06 04:34:49;;;;;;;13.75;11.40;;;22.00;71.60;;;;;;5075518;28;20393;-65
2021/09/06 04:37:16;;;;;;;15.43;12.10;;;22.00;72.30;;;;;;5076307;28;20039;-66
2021/09/06 04:39:45;;;;;;;12.05;10.75;;;21.90;73.40;;;;;;5076473;28;20405;-65
2021/09/06 04:42:11;;;;;;;13.32;11.70;;;21.80;73.90;;;;;;5076380;28;20047;-65
2021/09/06 04:44:39;;;;;;;13.25;11.82;;;21.90;74.10;;;;;;5060035;28;20035;-66
2021/09/06 04:47:07;;;;;;;13.23;11.82;;;21.90;73.90;;;;;;5059508;28;20040;-66
2021/09/06 04:49:34;;;;;;;14.57;11.57;;;21.90;74.00;;;;;;5042432;28;20400;-66
2021/09/06 04:52:03;;;;;;;11.57;10.20;;;21.90;74.50;;;;;;5075844;28;20052;-66
2021/09/06 04:54:30;;;;;;;13.63;11.70;;;21.70;75.10;;;;;;5075183;28;20048;-67
2021/09/06 04:56:57;;;;;;;13.35;11.57;;;21.70;75.50;;;;;;5076382;28;20035;-66
2021/09/06 04:59:23;;;;;;;13.15;11.48;;;21.70;75.50;;;;;;5075865;28;20036;-66
2021/09/06 05:01:52;;;;;;;14.55;11.43;;;21.80;74.80;;;;;;5075311;28;20383;-66
2021/09/06 05:04:19;;;;;;;13.30;11.90;;;21.70;74.10;;;;;;5076088;28;20047;-67
2021/09/06 05:06:47;;;;;;;11.80;10.25;;;21.60;73.80;;;;;;5058575;28;20063;-65
2021/09/06 05:09:17;;;;;;;12.07;10.88;;;21.50;74.10;;;;;;5075686;28;20036;-66
2021/09/06 05:11:43;;;;;;;17.35;9.82;;;21.50;73.90;;;;;;5075800;28;20044;-67
2021/09/06 05:14:10;;;;;;;12.07;9.40;;;21.50;73.90;;;;;;5074963;28;20043;-66
2021/09/06 05:16:37;;;;;;;11.70;9.82;;;21.50;73.70;;;;;;5094064;28;20040;-65
2021/09/06 05:19:05;;;;;;;11.98;9.52;;;21.50;73.30;;;;;;5092406;28;20048;-66
2021/09/06 05:21:32;;;;;;;11.05;9.93;;;21.50;73.10;;;;;;5075611;28;20047;-66
2021/09/06 05:23:59;;;;;;;11.68;8.93;;;21.50;73.10;;;;;;5075432;28;20048;-65
2021/09/06 05:26:26;;;;;;;10.05;9.05;;;21.50;73.10;;;;;;5075443;28;20052;-66
2021/09/06 05:31:38;;;;;;;12.55;10.07;;;21.50;72.60;;;;;;5073787;28;20048;-66
2021/09/06 05:34:05;;;;;;;13.27;9.63;;;21.50;72.50;;;;;;5073813;28;20510;-66
2021/09/06 05:36:32;;;;;;;11.00;9.02;;;21.50;72.40;;;;;;5075452;28;20032;-66
2021/09/06 05:38:59;;;;;;;12.80;9.32;;;21.50;72.50;;;;;;5074458;28;20040;-66
2021/09/06 05:41:37;;;;;;;11.98;9.73;;;21.50;72.40;;;;;;5075255;28;20059;-66
2021/09/06 05:44:07;;;;;;;10.82;9.45;;;21.50;72.40;;;;;;5075249;28;20388;-66
2021/09/06 05:46:35;;;;;;;10.88;9.77;;;21.50;72.50;;;;;;5093130;28;20055;-66
2021/09/06 05:49:03;;;;;;;10.73;8.25;;;21.50;72.40;;;;;;5074900;28;20044;-66
2021/09/06 05:51:33;;;;;;;11.85;9.75;;;21.50;72.30;;;;;;5074002;28;20051;-66
2021/09/06 05:54:04;;;;;;;16.55;11.23;;;21.50;72.30;;;;;;5058457;28;20055;-66
2021/09/06 05:56:30;;;;;;;11.95;8.73;;;21.50;72.30;;;;;;5092101;28;20380;-66
2021/09/06 05:58:59;;;;;;;14.52;10.07;;;21.50;72.60;;;;;;5075166;28;20048;-66
2021/09/06 06:01:28;;;;;;;9.43;8.45;;;21.50;72.00;;;;;;5057360;28;20051;-66
2021/09/06 06:03:54;;;;;;;9.27;7.30;;;21.50;71.90;;;;;;5092870;28;20044;-64
2021/09/06 06:06:47;;;;;;;12.20;8.38;;;21.50;71.40;;;;;;5089480;28;20044;-66
2021/09/06 06:09:13;;;;;;;9.25;7.70;;;21.50;71.40;;;;;;5075022;28;20400;-66
2021/09/06 06:11:41;;;;;;;11.40;7.82;;;21.60;70.90;;;;;;5058020;28;20405;-66
2021/09/06 06:14:15;;;;;;;9.75;7.07;;;21.50;71.20;;;;;;5073805;28;20489;-66
2021/09/06 06:16:44;;;;;;;9.43;6.97;;;21.60;70.30;;;;;;5074459;28;20506;-66
2021/09/06 06:19:11;;;;;;;8.32;6.80;;;21.60;70.40;;;;;;5074295;28;20052;-66
2021/09/06 06:21:57;;;;;;;9.68;6.85;;;21.60;70.30;;;;;;5076522;28;20045;-66
2021/09/06 06:24:42;;;;;;;10.82;7.90;;;21.60;70.30;;;;;;5072305;28;20384;-66
2021/09/06 06:27:22;;;;;;;10.13;6.28;;;21.60;70.00;;;;;;5054083;28;20041;-61
2021/09/06 06:29:49;;;;;;;10.40;6.60;;;21.60;70.20;;;;;;5053516;28;20040;-65
2021/09/06 06:32:16;;;;;;;7.65;5.97;;;21.70;69.70;;;;;;5063820;28;20535;-62
2021/09/06 06:34:46;;;;;;;8.05;6.22;;;21.70;69.30;;;;;;5074391;28;20127;-64
2021/09/06 06:37:13;;;;;;;7.90;6.00;;;21.70;68.90;;;;;;5091620;28;20035;-65
2021/09/06 06:39:40;;;;;;;21.27;14.15;;;21.70;68.80;;;;;;5070170;28;20035;-64
2021/09/06 06:42:07;;;;;;;11.00;7.80;;;21.80;68.70;;;;;;5060856;28;20067;-64
2021/09/06 06:44:37;;;;;;;8.05;6.88;;;21.80;68.10;;;;;;5084507;28;20051;-62
2021/09/06 06:47:05;;;;;;;9.43;8.10;;;21.80;68.20;;;;;;5067974;28;20024;-62
2021/09/06 06:49:32;;;;;;;7.53;6.47;;;21.70;67.70;;;;;;5066008;28;20278;-62
2021/09/06 06:51:59;;;;;;;10.50;8.20;;;21.70;68.10;;;;;;5065342;28;20059;-63
2021/09/06 06:54:27;;;;;;;10.90;9.70;;;21.80;70.40;;;;;;5074715;28;20373;-64
2021/09/06 06:56:53;;;;;;;15.65;9.50;;;21.90;71.60;;;;;;5077097;28;20051;-63
2021/09/06 06:59:20;;;;;;;15.35;10.70;;;21.90;72.10;;;;;;5077647;28;20154;-61
2021/09/06 07:01:47;;;;;;;13.18;9.45;;;21.90;72.60;;;;;;5073558;28;20032;-62
2021/09/06 07:04:14;;;;;;;11.93;9.10;;;21.90;72.80;;;;;;5066324;28;20538;-64
2021/09/06 07:06:43;;;;;;;13.52;9.13;;;22.00;72.40;;;;;;5066190;28;20024;-65
2021/09/06 07:09:11;;;;;;;12.73;8.95;;;22.00;72.20;;;;;;5068028;28;20041;-65
2021/09/06 07:11:39;;;;;;;12.23;8.88;;;22.00;71.50;;;;;;5060282;28;20393;-61
2021/09/06 07:14:09;;;;;;;13.35;8.07;;;22.20;70.90;;;;;;5057543;28;20063;-62
2021/09/06 07:16:43;;;;;;;10.98;8.07;;;22.30;70.40;;;;;;5079356;28;20036;-63
2021/09/06 07:19:10;;;;;;;15.18;8.43;;;22.50;69.60;;;;;;5064112;28;20061;-63
2021/09/06 07:21:36;;;;;;;9.93;7.18;;;22.60;69.10;;;;;;5074137;28;20047;-63
2021/09/06 07:24:03;;;;;;;9.13;7.93;;;22.60;68.40;;;;;;5094140;28;20487;-63
2021/09/06 07:26:30;;;;;;;8.63;7.10;;;22.60;67.80;;;;;;5065403;28;20036;-66
2021/09/06 07:28:59;;;;;;;10.95;8.65;;;22.60;67.90;;;;;;5062668;28;20059;-65
2021/09/06 07:31:26;;;;;;;10.35;8.32;;;22.60;67.90;;;;;;5041968;28;20044;-62
2021/09/06 07:33:52;;;;;;;11.98;9.52;;;22.70;67.80;;;;;;5057360;28;20052;-62
2021/09/06 07:36:19;;;;;;;19.65;10.07;;;22.90;67.50;;;;;;5075194;28;20038;-63
2021/09/06 07:38:46;;;;;;;18.30;10.15;;;23.00;67.00;;;;;;5057671;28;20059;-66
2021/09/06 07:41:14;;;;;;;13.68;8.65;;;23.10;66.30;;;;;;5057492;28;20044;-64
2021/09/06 07:43:44;;;;;;;10.27;8.73;;;23.20;65.70;;;;;;5055741;28;20051;-63
2021/09/06 07:46:13;;;;;;;11.63;8.52;;;23.30;64.90;;;;;;5055967;28;20043;-63
2021/09/06 07:48:40;;;;;;;10.27;8.15;;;23.40;63.70;;;;;;5056240;28;20048;-63
2021/09/06 07:51:07;;;;;;;10.02;7.65;;;23.50;64.20;;;;;;5057138;28;20044;-61
2021/09/06 07:53:34;;;;;;;8.63;7.55;;;23.50;63.70;;;;;;5057313;28;20056;-64
2021/09/06 07:56:14;;;;;;;8.50;7.60;;;23.60;63.60;;;;;;5058243;28;20037;-64
2021/09/06 07:58:41;;;;;;;11.70;8.35;;;23.70;63.50;;;;;;5057036;28;20051;-64
2021/09/06 08:01:07;;;;;;;14.95;8.15;;;23.80;63.80;;;;;;5056658;28;20047;-64
2021/09/06 08:03:34;;;;;;;11.32;7.85;;;23.80;63.50;;;;;;5071912;28;20040;-64
2021/09/06 08:06:01;;;;;;;10.77;8.63;;;23.90;62.50;;;;;;5061436;28;20036;-65
2021/09/06 08:08:27;;;;;;;13.68;10.30;;;23.80;61.70;;;;;;5062487;28;20405;-64
2021/09/06 08:10:56;;;;;;;14.75;11.80;;;23.80;62.10;;;;;;5076409;28;20035;-62
2021/09/06 08:13:28;;;;;;;11.82;8.85;;;23.80;61.60;;;;;;5075472;28;20492;-63
2021/09/06 08:15:55;;;;;;;10.65;8.48;;;23.90;61.20;;;;;;5076246;28;20035;-64
2021/09/06 08:18:22;;;;;;;11.38;7.95;;;24.00;60.80;;;;;;5075405;28;20044;-62
2021/09/06 08:20:50;;;;;;;11.00;8.98;;;24.00;60.80;;;;;;5076663;28;20047;-62
2021/09/06 08:23:18;;;;;;;19.08;14.18;;;24.00;60.80;;;;;;5076190;28;20040;-62
2021/09/06 08:25:47;;;;;;;12.23;8.63;;;24.10;60.80;;;;;;5076379;28;20048;-63
2021/09/06 08:28:14;;;;;;;9.98;8.57;;;24.20;60.10;;;;;;5075328;28;20036;-59
2021/09/06 08:30:42;;;;;;;18.23;12.50;;;24.00;59.50;;;;;;5076163;28;20051;-60
2021/09/06 08:33:09;;;;;;;12.75;11.00;;;24.10;60.00;;;;;;5076295;28;20403;-61
2021/09/06 08:35:36;;;;;;;13.75;9.05;;;24.20;59.90;;;;;;5075589;28;20043;-61
2021/09/06 08:38:04;;;;;;;10.48;9.32;;;24.20;61.20;;;;;;5074958;28;20032;-62
2021/09/06 08:40:31;;;;;;;12.02;9.98;;;24.10;60.50;;;;;;5076305;28;20381;-62
2021/09/06 08:43:02;;;;;;;9.38;8.20;;;24.20;61.00;;;;;;5093322;28;20039;-63
2021/09/06 08:45:29;;;;;;;9.45;7.97;;;24.30;61.10;;;;;;5058919;28;20480;-64
2021/09/06 08:47:56;;;;;;;11.85;7.72;;;24.40;60.50;;;;;;5075247;28;20385;-63
2021/09/06 08:50:24;;;;;;;13.77;8.43;;;24.50;59.80;;;;;;5075674;28;20048;-63
2021/09/06 08:52:51;;;;;;;12.50;8.23;;;24.60;59.70;;;;;;5093552;28;20040;-63
2021/09/06 08:55:17;;;;;;;14.25;7.88;;;24.70;59.40;;;;;;5075883;28;20043;-63
2021/09/06 08:57:47;;;;;;;9.07;7.63;;;24.80;60.00;;;;;;5075399;28;20043;-62
2021/09/06 09:00:22;;;;;;;10.77;7.85;;;24.80;58.40;;;;;;5074503;28;20048;-65
2021/09/06 09:03:11;;;;;;;10.75;7.90;;;24.80;58.20;;;;;;5075906;28;20051;-61
2021/09/06 09:06:11;;;;;;;10.05;8.10;;;24.70;58.60;;;;;;5064145;28;20052;-62
2021/09/06 09:09:03;;;;;;;15.15;9.10;;;24.70;58.70;;;;;;5041636;28;20040;-61
2021/09/06 09:12:12;;;;;;;9.45;7.07;;;24.70;58.30;;;;;;5055362;28;20040;-63
2021/09/06 09:15:06;;;;;;;10.40;7.97;;;24.80;58.50;;;;;;5069008;28;20419;-62
2021/09/06 09:17:54;;;;;;;8.15;7.25;;;25.00;58.30;;;;;;5072500;28;20055;-63
2021/09/06 09:20:42;;;;;;;10.07;6.90;;;24.90;56.40;;;;;;5055314;28;20044;-60
2021/09/06 09:23:43;;;;;;;10.05;7.00;;;24.90;56.90;;;;;;5055240;28;20044;-61
2021/09/06 09:26:19;;;;;;;9.10;6.82;;;24.90;56.30;;;;;;5054041;28;20051;-60
2021/09/06 09:29:18;;;;;;;9.05;6.65;;;25.00;56.40;;;;;;5055045;28;20045;-61
2021/09/06 09:32:11;;;;;;;13.88;9.60;;;25.10;56.60;;;;;;5054965;28;20039;-62
2021/09/06 09:35:16;;;;;;;10.77;9.00;;;25.10;55.80;;;;;;5048579;28;20063;-62
2021/09/06 09:37:42;;;;;;;13.18;8.13;;;25.10;55.60;;;;;;5086806;28;20039;-60
2021/09/06 09:40:12;;;;;;;9.45;6.95;;;25.20;55.50;;;;;;5092272;28;20054;-62
2021/09/06 09:42:49;;;;;;;8.93;5.75;;;25.30;54.90;;;;;;5090330;28;20044;-62
2021/09/06 09:45:25;;;;;;;9.18;6.32;;;25.40;54.50;;;;;;5091483;28;20040;-62
2021/09/06 09:48:12;;;;;;;7.68;6.22;;;25.40;54.30;;;;;;5077933;28;20040;-63
2021/09/06 09:50:38;;;;;;;10.88;8.63;;;25.40;53.30;;;;;;5092110;28;20392;-61
2021/09/06 09:53:06;;;;;;;11.90;7.95;;;25.40;53.70;;;;;;5091945;28;20044;-59
2021/09/06 09:55:34;;;;;;;12.05;7.72;;;25.40;53.50;;;;;;5092512;28;20048;-61
2021/09/06 09:58:02;;;;;;;8.13;5.95;;;25.40;53.30;;;;;;5092755;28;20032;-62
2021/09/06 10:00:30;;;;;;;7.10;6.18;;;25.40;52.30;;;;;;5092535;28;20040;-61
2021/09/06 10:03:00;;;;;;;8.55;6.32;;;25.40;52.30;;;;;;5092649;28;20051;-63
2021/09/06 10:05:34;;;;;;;6.75;5.60;;;25.40;52.30;;;;;;5084063;28;20060;-63
2021/09/06 10:08:21;;;;;;;8.07;6.32;;;25.50;52.00;;;;;;5070727;28;20396;-62
2021/09/06 10:10:48;;;;;;;7.45;6.07;;;25.40;52.10;;;;;;5072319;28;20063;-62
2021/09/06 10:13:18;;;;;;;7.43;6.20;;;25.50;51.50;;;;;;5071007;28;20056;-62
2021/09/06 10:16:00;;;;;;;8.15;6.18;;;25.60;51.80;;;;;;5071842;28;20056;-62
2021/09/06 10:18:40;;;;;;;8.95;6.55;;;25.60;50.70;;;;;;5070433;28;20052;-63
2021/09/06 10:21:17;;;;;;;8.80;6.20;;;25.50;50.20;;;;;;5073532;28;20053;-58
2021/09/06 10:23:51;;;;;;;8.60;6.40;;;25.50;51.00;;;;;;5073197;28;20096;-61
2021/09/06 10:26:19;;;;;;;8.30;5.82;;;25.50;50.60;;;;;;5090346;28;20048;-61
2021/09/06 10:28:46;;;;;;;9.23;6.63;;;25.40;50.60;;;;;;5090975;28;20047;-64
2021/09/06 10:31:21;;;;;;;6.88;5.55;;;25.50;51.00;;;;;;5092326;28;20121;-62
2021/09/06 10:34:00;;;;;;;10.65;5.68;;;25.50;50.30;;;;;;5091817;28;20048;-61
2021/09/06 10:36:27;;;;;;;7.95;5.18;;;25.50;49.90;;;;;;5092177;28;20496;-62
2021/09/06 10:39:01;;;;;;;6.93;5.35;;;25.60;50.50;;;;;;5091911;28;20042;-61
2021/09/06 10:41:28;;;;;;;7.95;6.32;;;25.70;50.00;;;;;;5091962;28;20032;-62
2021/09/06 10:43:59;;;;;;;6.38;4.82;;;25.60;48.80;;;;;;5073286;28;20072;-61
2021/09/06 10:46:28;;;;;;;9.73;6.90;;;25.60;49.30;;;;;;5092246;28;20059;-61
2021/09/06 10:49:03;;;;;;;7.82;5.35;;;25.40;48.40;;;;;;5091488;28;20047;-62
2021/09/06 10:51:32;;;;;;;8.38;5.63;;;25.50;49.00;;;;;;5090800;28;20047;-61
2021/09/06 10:54:08;;;;;;;6.30;5.37;;;25.70;49.00;;;;;;5091749;28;20040;-62
2021/09/06 10:56:35;;;;;;;9.05;5.78;;;25.70;48.50;;;;;;5090839;28;20051;-61
2021/09/06 10:59:02;;;;;;;8.25;5.53;;;25.60;48.20;;;;;;5090156;28;20047;-61
2021/09/06 11:01:35;;;;;;;8.10;5.40;;;25.60;48.70;;;;;;5092069;28;20036;-61
2021/09/06 11:04:04;;;;;;;7.25;5.57;;;25.80;48.60;;;;;;5090844;28;20040;-61
2021/09/06 11:06:31;;;;;;;7.72;4.57;;;25.90;48.50;;;;;;5091452;28;20040;-68
2021/09/06 11:09:00;;;;;;;6.32;4.15;;;25.90;48.50;;;;;;5092223;28;20110;-63
2021/09/06 11:11:30;;;;;;;4.63;3.90;;;26.00;48.30;;;;;;5073502;28;20067;-64
2021/09/06 11:13:57;;;;;;;6.13;4.32;;;25.90;48.00;;;;;;5073324;28;20083;-65
2021/09/06 11:16:43;;;;;;;7.30;3.97;;;25.90;47.90;;;;;;5090340;28;20040;-64
2021/09/06 11:19:12;;;;;;;11.80;4.75;;;26.00;48.10;;;;;;5080561;28;20049;-67
2021/09/06 11:21:41;;;;;;;6.75;4.30;;;26.10;48.70;;;;;;5062988;28;20048;-65
2021/09/06 11:24:08;;;;;;;7.30;4.70;;;26.10;48.20;;;;;;5075843;28;20481;-65
2021/09/06 11:26:35;;;;;;;4.38;3.20;;;26.10;48.30;;;;;;5071605;28;20047;-66
2021/09/06 11:29:02;;;;;;;7.22;3.78;;;26.20;48.50;;;;;;5071065;28;20036;-65
2021/09/06 11:31:30;;;;;;;6.95;3.78;;;26.20;48.60;;;;;;5073346;28;20492;-62
2021/09/06 11:34:04;;;;;;;6.65;3.40;;;26.20;48.40;;;;;;5057654;28;20036;-64
2021/09/06 11:36:31;;;;;;;9.65;8.15;;;26.30;47.70;;;;;;5074804;28;20052;-64
2021/09/06 11:38:58;;;;;;;12.05;8.50;;;26.30;48.10;;;;;;5075154;28;20488;-65
2021/09/06 11:41:25;;;;;;;7.05;5.20;;;26.30;48.10;;;;;;5074165;28;20048;-64
2021/09/06 11:43:53;;;;;;;18.40;15.75;;;26.30;47.60;;;;;;5074176;28;20045;-66
2021/09/06 11:46:21;;;;;;;13.10;10.40;;;26.30;47.90;;;;;;5074929;28;20037;-61
2021/09/06 11:48:49;;;;;;;9.85;7.63;;;26.40;47.30;;;;;;5057051;28;20423;-63
2021/09/06 11:51:17;;;;;;;8.50;6.82;;;26.40;47.20;;;;;;5056801;28;20044;-64
2021/09/06 11:53:55;;;;;;;6.60;4.78;;;26.40;46.70;;;;;;5056292;28;20056;-61
2021/09/06 11:56:21;;;;;;;6.55;4.20;;;26.30;46.40;;;;;;5055227;28;20044;-61
2021/09/06 11:58:48;;;;;;;6.88;3.80;;;26.40;47.10;;;;;;5073944;28;20075;-59
2021/09/06 12:01:15;;;;;;;5.88;3.70;;;26.50;47.20;;;;;;5075278;28;20037;-66
2021/09/06 12:03:43;;;;;;;8.10;3.67;;;26.60;46.80;;;;;;5056983;28;20028;-61
2021/09/06 12:06:12;;;;;;;8.00;4.05;;;26.60;47.10;;;;;;5073891;28;20044;-66
2021/09/06 12:08:50;;;;;;;5.00;4.30;;;26.60;47.10;;;;;;5056221;28;20044;-61
2021/09/06 12:11:17;;;;;;;5.35;4.30;;;26.70;46.20;;;;;;5056585;28;20396;-61
2021/09/06 12:13:56;;;;;;;8.40;6.65;;;26.70;46.40;;;;;;5074127;28;20048;-63
2021/09/06 12:16:27;;;;;;;7.05;6.03;;;26.60;45.20;;;;;;5055435;28;20033;-70
2021/09/06 12:18:53;;;;;;;21.52;15.45;;;26.70;44.40;;;;;;5074101;28;20048;-65
2021/09/06 12:21:21;;;;;;;15.95;11.98;;;26.80;44.90;;;;;;5073537;28;20393;-66
2021/09/06 12:23:59;;;;;;;11.65;9.57;;;26.70;44.60;;;;;;5074162;28;20049;-65
2021/09/06 12:26:38;;;;;;;16.70;14.95;;;26.70;44.60;;;;;;5073146;28;20049;-65
2021/09/06 12:29:06;;;;;;;9.17;6.80;;;26.70;45.10;;;;;;5056524;28;20476;-65
2021/09/06 12:31:44;;;;;;;7.25;6.07;;;26.80;44.30;;;;;;5039460;28;20047;-65
2021/09/06 12:34:12;;;;;;;5.70;4.65;;;26.90;43.50;;;;;;5073276;28;20499;-65
2021/09/06 12:36:40;;;;;;;8.63;4.15;;;26.90;43.50;;;;;;5074106;28;20481;-66
2021/09/06 12:39:07;;;;;;;8.23;6.38;;;26.90;42.70;;;;;;5073151;28;20040;-66
2021/09/06 12:41:33;;;;;;;6.20;4.60;;;26.90;43.10;;;;;;5073115;28;20041;-66
2021/09/06 12:44:00;;;;;;;6.43;4.80;;;26.90;42.70;;;;;;5074130;28;20037;-66
2021/09/06 12:46:28;;;;;;;10.30;5.30;;;26.90;42.70;;;;;;5056006;28;20044;-66
2021/09/06 12:48:54;;;;;;;6.55;4.70;;;26.90;43.10;;;;;;5055095;28;20040;-66
2021/09/06 12:51:21;;;;;;;9.43;5.45;;;26.90;43.00;;;;;;5056329;28;20044;-65
2021/09/06 12:53:47;;;;;;;7.85;4.40;;;26.90;43.60;;;;;;5072623;28;20392;-65
2021/09/06 12:56:14;;;;;;;7.47;4.10;;;26.90;43.30;;;;;;5073520;28;20396;-65
2021/09/06 12:58:40;;;;;;;6.50;4.28;;;26.90;42.50;;;;;;5072650;28;20040;-64